MMMY/MTY METAR and TAF weather

Enter ICAO airport designator
Station Type Date Time Source
MMMY METAR 2019/08/25 17:43 UTC NOAA

MMMY 251743Z 00000KT 8SM SCT200 32/23 A2987 RMK SLP/// 5//// 9// 8/008 HZY FRMG CU NE


Station Type Date Time Source
MMMY Decoded METAR 2019/08/25 17:43 UTC NOAA

Station name not available
Aug 25, 2019 - 01:43 PM EDT / 2019.08.25 1743 UTC
Wind: Calm:0
Visibility: 8 mile(s):0
Sky conditions: partly cloudy
Temperature: 89 F (32 C)
Heat index: 96.8 F (36.0 C):1
Dew Point: 73 F (23 C)
Relative Humidity: 59%
Pressure (altimeter): 29.87 in. Hg (1011 hPa)
ob: MMMY 251743Z 00000KT 8SM SCT200 32/23 A2987 RMK SLP/// 5//// 9// 8/008 HZY FRMG CU NE
cycle: 17

Station Type Date Time Source
MMMY TAF 2019/08/25 18:27 UTC NOAA

TAF MMMY 251620Z 2518/2624 09005KT P6SM SCT030 BKN100 TX36/2521Z TN23/2613Z
FM252100 07012KT P6SM BKN030CB BKN100
TEMPO 2522/2602 5SM TSRA
FM260300 00000KT 6SM HZ SCT030 BKN100
FM261000 00000KT 5SM HZ SCT020 BKN100
TEMPO 2611/2615 3SM BR HZ BKN020
FM261600 12005KT 6SM HZ SCT030 SCT100
BECMG 2620/2621 12015KT BKN030

Example: see airport list